createdAt,value
2019-02-21T00:13:43.737Z,7.08
2019-02-21T00:16:13.795Z,7.03
2019-02-21T00:24:07.076Z,7.07
2019-02-21T00:26:36.810Z,7.13
2019-02-21T00:29:06.407Z,7.11
2019-02-21T00:31:36.169Z,7.08
2019-02-21T00:34:06.406Z,6.92
2019-02-21T00:36:35.970Z,7.01
2019-02-21T00:39:07.161Z,6.98
2019-02-21T00:41:37.109Z,7.01
2019-02-21T00:44:06.956Z,7.03
2019-02-21T00:46:36.626Z,7.07
2019-02-21T00:49:06.588Z,7.11
2019-02-21T00:51:36.729Z,7.04
2019-02-21T00:54:06.563Z,7.04
2019-02-21T00:56:36.517Z,7.02
2019-02-21T00:59:06.221Z,7.05
2019-02-21T01:01:36.312Z,7.07
2019-02-21T01:04:06.314Z,7.08
2019-02-21T01:06:36.062Z,7.09
2019-02-21T01:09:06.773Z,7.11
2019-02-21T01:11:36.534Z,7.10
2019-02-21T01:14:06.558Z,7.02
2019-02-21T01:16:36.138Z,7.02
2019-02-21T01:19:06.388Z,6.96
2019-02-21T01:21:36.112Z,6.88
2019-02-21T01:24:05.958Z,6.91
2019-02-21T01:26:35.710Z,6.93
2019-02-21T01:29:05.323Z,6.91
2019-02-21T01:31:35.256Z,6.84
2019-02-21T01:34:05.033Z,6.84
2019-02-21T01:36:35.852Z,6.87
2019-02-21T01:39:07.092Z,6.85
2019-02-21T01:41:37.223Z,6.79
2019-02-21T01:44:07.003Z,6.70
2019-02-21T01:46:36.701Z,6.65
2019-02-21T01:49:06.485Z,6.62
2019-02-21T01:51:36.282Z,6.67
2019-02-21T01:54:06.268Z,6.67
2019-02-21T01:56:35.851Z,6.67
2019-02-21T01:59:05.475Z,6.64
2019-02-21T02:01:35.235Z,6.57
2019-02-21T02:04:04.863Z,6.60
2019-02-21T02:06:36.388Z,6.55
2019-02-21T02:09:11.478Z,6.56
2019-02-21T02:11:41.202Z,6.55
2019-02-21T02:14:10.905Z,6.51
2019-02-21T02:16:40.491Z,6.55
2019-02-21T02:19:10.675Z,6.55
2019-02-21T02:21:40.926Z,6.53
2019-02-21T02:24:10.531Z,6.53
2019-02-21T02:26:40.271Z,6.58
2019-02-21T02:29:10.053Z,6.49
2019-02-21T02:31:39.812Z,6.48
2019-02-21T02:34:09.416Z,6.46
2019-02-21T02:36:39.379Z,6.49
2019-02-21T02:39:09.118Z,6.46
2019-02-21T02:41:38.894Z,6.52
2019-02-21T02:44:08.711Z,6.53
2019-02-21T02:46:38.499Z,6.55
2019-02-21T02:49:08.587Z,6.50
2019-02-21T02:51:38.484Z,6.47
2019-02-21T02:54:08.167Z,6.51
2019-02-21T02:56:38.005Z,6.51
2019-02-21T02:59:07.824Z,6.49
2019-02-21T03:01:37.702Z,6.49
2019-02-21T03:04:07.421Z,6.50
2019-02-21T03:06:37.317Z,6.48
2019-02-21T03:09:10.235Z,6.50
2019-02-21T03:11:40.145Z,6.50
2019-02-21T03:14:09.900Z,6.47
2019-02-21T03:16:39.607Z,6.43
2019-02-21T03:19:09.443Z,6.42
2019-02-21T03:21:39.234Z,6.40
2019-02-21T03:24:09.114Z,6.44
2019-02-21T03:26:39.110Z,6.44
2019-02-21T03:29:08.819Z,6.44
2019-02-21T03:31:53.541Z,6.45
2019-02-21T03:34:10.258Z,6.44
2019-02-21T03:36:40.225Z,6.44
2019-02-21T03:39:10.282Z,6.41
2019-02-21T03:41:40.479Z,6.46
2019-02-21T03:44:10.478Z,6.39
2019-02-21T03:46:40.213Z,6.39
2019-02-21T03:49:10.010Z,6.39
2019-02-21T03:51:39.689Z,6.40
2019-02-21T03:54:09.755Z,6.40
2019-02-21T03:56:39.463Z,6.44
2019-02-21T03:59:09.155Z,6.41
2019-02-21T04:01:38.752Z,6.36
2019-02-21T04:04:08.367Z,6.35
2019-02-21T04:06:38.403Z,6.35
2019-02-21T04:09:09.709Z,6.35
2019-02-21T04:11:39.505Z,6.35
2019-02-21T04:14:09.471Z,6.32
2019-02-21T04:16:39.332Z,6.30
2019-02-21T04:19:09.424Z,6.31
2019-02-21T04:21:39.309Z,6.35
2019-02-21T04:24:09.579Z,6.36
2019-02-21T04:26:39.494Z,6.37
2019-02-21T04:29:09.082Z,6.40
2019-02-21T04:31:38.817Z,6.40
2019-02-21T04:34:08.635Z,6.41
2019-02-21T04:36:38.425Z,6.46
2019-02-21T04:39:08.352Z,6.46
2019-02-21T04:41:38.335Z,6.46
2019-02-21T04:44:08.336Z,6.47
2019-02-21T04:46:39.103Z,6.47
2019-02-21T04:49:09.069Z,6.49
2019-02-21T04:51:38.721Z,6.50
2019-02-21T04:54:08.565Z,6.50
2019-02-21T04:56:38.642Z,6.49
2019-02-21T04:59:08.357Z,6.52
2019-02-21T05:01:40.268Z,6.51
2019-02-21T05:04:09.625Z,6.50
2019-02-21T05:06:39.282Z,6.50
2019-02-21T05:11:44.402Z,6.53
2019-02-21T05:14:14.188Z,6.56
2019-02-21T05:39:14.365Z,6.81
2019-02-21T05:45:18.461Z,6.82
2019-02-21T05:57:23.567Z,6.90
2019-02-21T06:03:18.258Z,6.91
2019-02-21T06:09:42.955Z,6.83
2019-02-21T06:15:32.183Z,6.69
2019-02-21T06:24:17.740Z,6.65
2019-02-21T06:26:55.876Z,6.65
2019-02-21T06:32:30.927Z,6.62
2019-02-21T06:35:02.891Z,6.59
2019-02-21T06:37:32.533Z,6.65
2019-02-21T06:40:02.372Z,6.66
2019-02-21T06:42:32.067Z,6.66
2019-02-21T06:45:02.050Z,6.66
2019-02-21T06:47:31.575Z,6.71
2019-02-21T06:50:01.379Z,6.74
2019-02-21T06:52:31.211Z,6.80
2019-02-21T06:55:02.354Z,6.85
2019-02-21T06:57:33.106Z,6.85
2019-02-21T07:00:02.996Z,6.81
2019-02-21T07:02:32.799Z,6.78
2019-02-21T07:05:02.903Z,6.73
2019-02-21T07:07:32.832Z,6.73
2019-02-21T07:10:02.447Z,6.67
2019-02-21T07:12:32.075Z,6.68
2019-02-21T07:15:02.251Z,6.68
2019-02-21T07:17:32.358Z,6.66
2019-02-21T07:22:54.198Z,6.66
2019-02-21T07:31:32.915Z,6.85
2019-02-21T07:34:02.563Z,6.89
2019-02-21T07:39:16.819Z,6.85
2019-02-21T07:41:41.677Z,6.85
2019-02-21T07:44:12.354Z,6.82
2019-02-21T07:49:31.521Z,6.83
2019-02-21T07:52:01.217Z,6.85
2019-02-21T07:54:31.055Z,6.88
2019-02-21T07:57:01.950Z,6.91
2019-02-21T08:09:13.872Z,6.95
2019-02-21T08:11:43.861Z,6.94
2019-02-21T08:14:32.556Z,7.02
2019-02-21T08:17:02.461Z,7.06
2019-02-21T08:19:32.494Z,7.06
2019-02-21T08:22:02.605Z,7.09
2019-02-21T08:24:32.463Z,7.08
2019-02-21T08:27:02.136Z,7.08
2019-02-21T08:29:31.921Z,7.14
2019-02-21T08:32:01.579Z,7.17
2019-02-21T08:34:35.572Z,7.21
2019-02-21T08:37:05.167Z,7.24
2019-02-21T08:45:50.214Z,7.42
2019-02-21T08:48:19.993Z,7.42
2019-02-21T08:50:49.649Z,7.47
2019-02-21T08:53:19.409Z,7.49
2019-02-21T08:55:49.102Z,7.52
2019-02-21T08:58:18.814Z,7.57
2019-02-21T09:00:48.532Z,7.58
2019-02-21T09:03:18.344Z,7.54
2019-02-21T09:08:41.968Z,7.59
2019-02-21T09:11:11.928Z,7.63
2019-02-21T09:13:41.930Z,7.71
2019-02-21T09:16:11.532Z,7.71
2019-02-21T09:18:41.240Z,7.69
2019-02-21T09:21:11.515Z,7.68
2019-02-21T09:23:41.377Z,7.49
2019-02-21T09:26:11.127Z,7.49
2019-02-21T09:35:23.640Z,7.41
2019-02-21T09:37:53.571Z,7.42
2019-02-21T09:40:23.239Z,7.43
2019-02-21T09:42:52.945Z,7.34
2019-02-21T09:48:12.179Z,7.29
2019-02-21T09:50:41.942Z,7.30
2019-02-21T09:55:50.186Z,7.35
2019-02-21T09:58:19.115Z,7.35
2019-02-21T10:00:48.920Z,7.30
2019-02-21T10:03:18.485Z,7.30
2019-02-21T10:06:08.453Z,7.33
2019-02-21T10:08:39.410Z,7.34
2019-02-21T10:11:11.372Z,7.40
2019-02-21T10:13:40.940Z,7.39
2019-02-21T10:16:11.395Z,7.39
2019-02-21T10:18:41.099Z,7.43
2019-02-21T10:21:10.790Z,7.42
2019-02-21T10:23:42.164Z,7.29
2019-02-21T10:29:40.301Z,6.12
2019-02-21T10:32:09.997Z,7.39
2019-02-21T10:34:42.953Z,7.31
2019-02-21T10:37:10.941Z,7.44
2019-02-21T10:39:40.678Z,7.49
2019-02-21T10:42:10.251Z,6.56
2019-02-21T10:44:39.887Z,7.45
2019-02-21T10:47:09.737Z,7.43
2019-02-21T10:52:50.648Z,7.52
2019-02-21T10:55:20.431Z,7.52
2019-02-21T11:00:32.620Z,7.47
2019-02-21T11:03:02.369Z,7.38
2019-02-21T11:05:32.633Z,7.49
2019-02-21T11:08:02.721Z,7.54
2019-02-21T11:10:33.223Z,7.56
2019-02-21T11:13:03.189Z,7.53
2019-02-21T11:15:51.887Z,7.43
2019-02-21T11:18:21.734Z,7.33
2019-02-21T11:20:51.845Z,7.30
2019-02-21T11:23:21.543Z,7.34
2019-02-21T11:25:51.630Z,7.36
2019-02-21T11:28:21.670Z,7.31
2019-02-21T11:30:51.568Z,7.28
2019-02-21T11:36:31.898Z,7.25
2019-02-21T11:39:01.746Z,7.27
2019-02-21T11:41:32.078Z,6.31
2019-02-21T11:44:01.604Z,7.08
2019-02-21T11:46:31.601Z,6.89
2019-02-21T11:51:51.890Z,6.93
2019-02-21T11:54:27.032Z,6.91
2019-02-21T11:56:54.014Z,6.81
2019-02-21T11:59:23.682Z,6.90
2019-02-21T12:01:53.390Z,6.83
2019-02-21T12:04:24.439Z,6.82
2019-02-21T12:06:54.652Z,6.93
2019-02-21T12:09:24.294Z,6.87
2019-02-21T12:11:54.255Z,6.88
2019-02-21T12:14:24.004Z,6.84
2019-02-21T12:16:54.013Z,6.84
2019-02-21T12:19:23.842Z,6.69
2019-02-21T12:22:48.885Z,6.71
2019-02-21T12:25:19.136Z,6.71
2019-02-21T12:27:49.465Z,6.82
2019-02-21T12:36:52.009Z,6.82
2019-02-21T12:39:21.908Z,6.88
2019-02-21T12:41:51.666Z,6.90
2019-02-21T12:44:21.273Z,6.87
2019-02-21T12:46:51.111Z,6.90
2019-02-21T12:49:21.057Z,6.84
2019-02-21T12:51:50.628Z,6.86
2019-02-21T12:54:20.332Z,6.94
2019-02-21T12:56:50.176Z,6.86
2019-02-21T13:05:06.899Z,6.79
2019-02-21T13:07:36.545Z,6.65
2019-02-21T13:10:08.186Z,6.77
2019-02-21T13:12:37.901Z,6.86
2019-02-21T13:15:09.155Z,6.59
2019-02-21T13:17:39.244Z,6.49
2019-02-21T13:20:09.884Z,6.68
2019-02-21T13:22:39.684Z,6.68
2019-02-21T13:25:10.368Z,6.73
2019-02-21T13:27:40.093Z,6.68
2019-02-21T13:30:12.977Z,6.62
2019-02-21T13:32:42.642Z,6.46
2019-02-21T13:42:30.164Z,6.44
2019-02-21T13:45:00.032Z,6.33
2019-02-21T13:47:32.776Z,6.47
2019-02-21T13:53:13.116Z,6.38
2019-02-21T13:55:43.008Z,6.33
2019-02-21T13:58:12.590Z,6.40
2019-02-21T14:00:42.404Z,6.35
2019-02-21T14:03:12.390Z,6.38
2019-02-21T14:05:42.224Z,6.40
2019-02-21T14:08:30.913Z,6.53
2019-02-21T14:11:00.628Z,6.53
2019-02-21T14:13:30.395Z,6.53
2019-02-21T14:16:00.095Z,6.16
2019-02-21T14:18:30.353Z,6.69
2019-02-21T14:21:00.323Z,6.69
2019-02-21T14:23:30.134Z,6.63
2019-02-21T14:26:00.147Z,6.65
2019-02-21T14:28:29.961Z,6.78
2019-02-21T14:31:00.189Z,6.78
2019-02-21T14:33:30.261Z,6.75
2019-02-21T14:36:00.183Z,6.77
2019-02-21T14:38:30.186Z,6.71
2019-02-21T14:44:49.464Z,6.78
2019-02-21T14:47:18.806Z,6.78
2019-02-21T14:49:48.867Z,6.84
2019-02-21T14:55:00.767Z,6.86
2019-02-21T14:57:40.554Z,6.86
2019-02-21T15:00:01.867Z,6.80
2019-02-21T15:02:31.564Z,6.83
2019-02-21T15:07:43.124Z,6.85
2019-02-21T15:10:12.798Z,6.94
2019-02-21T15:12:42.521Z,6.94
2019-02-21T15:15:13.510Z,6.89
2019-02-21T15:17:43.127Z,6.87
2019-02-21T15:20:16.548Z,6.88
2019-02-21T15:22:46.493Z,6.89
2019-02-21T15:25:16.342Z,6.89
2019-02-21T15:27:46.114Z,6.91
2019-02-21T15:30:17.866Z,6.91
2019-02-21T15:32:47.854Z,6.95
2019-02-21T15:38:44.603Z,6.90
2019-02-21T15:41:14.245Z,6.90
2019-02-21T15:43:43.899Z,6.90
2019-02-21T15:46:13.751Z,6.93
2019-02-21T15:48:44.688Z,7.02
2019-02-21T16:04:04.170Z,7.04
2019-02-21T16:06:33.995Z,7.04
2019-02-21T16:11:54.481Z,7.01
2019-02-21T16:14:25.888Z,6.97
2019-02-21T16:16:55.613Z,7.00
2019-02-21T16:19:25.345Z,6.96
2019-02-21T16:35:06.893Z,6.69
2019-02-21T16:43:56.477Z,6.72
2019-02-21T16:46:26.246Z,6.72
2019-02-21T16:51:53.767Z,6.70
2019-02-21T16:54:23.517Z,6.73
2019-02-21T16:56:53.658Z,6.67
2019-02-21T16:59:23.463Z,6.66
2019-02-21T17:01:53.199Z,6.51
2019-02-21T17:04:23.129Z,6.51
2019-02-21T17:06:52.913Z,6.50
2019-02-21T17:09:22.838Z,6.23
2019-02-21T17:12:11.954Z,6.25
2019-02-21T17:14:41.774Z,6.25
2019-02-21T17:17:11.472Z,5.97
2019-02-21T17:19:41.439Z,5.91
2019-02-21T17:22:11.156Z,5.95
2019-02-21T17:24:41.128Z,5.92
2019-02-21T17:27:11.200Z,5.92
2019-02-21T17:29:41.314Z,5.88
2019-02-21T17:37:29.544Z,5.71
2019-02-21T17:39:59.557Z,5.63
2019-02-21T17:42:29.458Z,5.59
2019-02-21T17:44:59.298Z,5.50
2019-02-21T17:53:16.764Z,5.64
2019-02-21T17:58:44.773Z,5.73
2019-02-21T18:01:51.053Z,5.64
2019-02-21T18:05:00.745Z,5.64
2019-02-21T18:07:36.320Z,5.47
2019-02-21T18:10:02.776Z,5.47
2019-02-21T18:12:32.656Z,5.49
2019-02-21T18:15:21.579Z,5.39
2019-02-21T18:17:51.950Z,5.39
2019-02-21T18:20:21.639Z,5.32
2019-02-21T18:23:12.410Z,5.24
2019-02-21T18:25:45.745Z,5.07
2019-02-21T18:28:15.565Z,5.01
2019-02-21T18:30:45.553Z,5.01
2019-02-21T18:33:15.603Z,4.91
2019-02-21T18:35:45.533Z,4.85
2019-02-21T18:38:16.043Z,4.89
2019-02-21T18:40:45.900Z,4.96
2019-02-21T18:43:15.644Z,5.07
2019-02-21T18:46:04.418Z,5.07
2019-02-21T18:48:34.124Z,5.07
2019-02-21T18:53:40.422Z,4.90
2019-02-21T18:59:32.145Z,5.04
2019-02-21T19:08:24.626Z,5.01
2019-02-21T19:10:54.607Z,4.91
2019-02-21T19:13:24.607Z,4.98
2019-02-21T19:15:54.470Z,4.81
2019-02-21T19:25:10.587Z,4.72
2019-02-21T19:27:41.264Z,4.72
2019-02-21T19:30:47.627Z,4.67
2019-02-21T19:33:17.451Z,4.67
2019-02-21T19:35:48.629Z,4.71
2019-02-21T19:38:19.640Z,4.62
2019-02-21T19:43:38.818Z,4.67
2019-02-21T19:46:09.035Z,4.71
2019-02-21T19:48:38.817Z,4.67
2019-02-21T19:51:09.048Z,4.66
2019-02-21T19:56:14.034Z,4.51
2019-02-21T19:58:43.862Z,4.69
2019-02-21T20:01:13.799Z,4.58
2019-02-21T20:03:43.544Z,4.58
2019-02-21T20:06:14.215Z,4.48
2019-02-21T20:08:44.324Z,4.48
2019-02-21T20:15:06.657Z,4.30
2019-02-21T20:17:36.913Z,4.33
2019-02-21T20:20:07.028Z,4.44
2019-02-21T20:22:36.852Z,4.42
2019-02-21T20:25:06.762Z,4.25
2019-02-21T20:27:36.760Z,4.36
2019-02-21T20:30:07.560Z,4.49
2019-02-21T20:32:37.422Z,4.54
2019-02-21T20:35:07.575Z,4.56
2019-02-21T20:37:37.477Z,4.56
2019-02-21T20:40:08.055Z,4.50
2019-02-21T20:42:37.962Z,4.46
2019-02-21T20:45:08.652Z,4.44
2019-02-21T20:47:38.463Z,4.37
2019-02-21T20:50:08.887Z,4.40
2019-02-21T20:52:39.054Z,4.46
2019-02-21T20:55:09.468Z,4.54
2019-02-21T20:57:39.743Z,4.62
2019-02-21T21:00:11.307Z,4.52
2019-02-21T21:02:42.337Z,4.43
2019-02-21T21:05:12.593Z,4.35
2019-02-21T21:07:42.485Z,4.22
2019-02-21T21:10:13.835Z,4.29
2019-02-21T21:12:43.850Z,4.29
2019-02-21T21:15:14.986Z,4.33
2019-02-21T21:17:45.023Z,4.23
2019-02-21T21:23:05.072Z,4.26
2019-02-21T21:25:35.034Z,3.36
2019-02-21T21:34:27.451Z,4.17
2019-02-21T21:36:57.391Z,4.18
2019-02-21T21:39:28.312Z,4.19
2019-02-21T21:41:59.041Z,4.23
2019-02-21T21:44:28.653Z,4.09
2019-02-21T21:46:58.705Z,4.17
2019-02-21T21:49:28.581Z,4.09
2019-02-21T21:51:58.484Z,4.03
2019-02-21T22:00:32.116Z,3.98
2019-02-21T22:03:02.282Z,4.01
2019-02-21T22:05:32.226Z,3.94
2019-02-21T22:10:37.084Z,3.99
2019-02-21T22:13:07.418Z,3.91
2019-02-21T22:15:37.683Z,4.00
2019-02-21T22:18:07.499Z,3.75
2019-02-21T22:20:38.054Z,3.75
2019-02-21T22:23:08.087Z,3.63
2019-02-21T22:25:37.890Z,3.65
2019-02-21T22:28:08.136Z,3.69
2019-02-21T22:30:37.775Z,3.75
2019-02-21T22:33:07.843Z,3.84
2019-02-21T22:35:37.669Z,3.74
2019-02-21T22:38:07.534Z,3.80
2019-02-21T22:40:38.033Z,3.68
2019-02-21T22:43:08.716Z,3.64
2019-02-21T22:45:57.401Z,3.61
2019-02-21T22:48:27.352Z,3.59
2019-02-21T22:50:57.906Z,3.62
2019-02-21T22:53:28.186Z,3.64
2019-02-21T22:55:58.198Z,3.62
2019-02-21T22:58:28.302Z,3.49
2019-02-21T23:01:26.140Z,3.54
2019-02-21T23:04:20.107Z,3.46
2019-02-21T23:10:13.147Z,3.45
2019-02-21T23:12:43.347Z,3.35
2019-02-21T23:18:25.007Z,3.25
2019-02-21T23:20:54.664Z,3.19
2019-02-21T23:23:24.317Z,3.16
2019-02-21T23:25:54.226Z,3.17
2019-02-21T23:28:24.271Z,3.24
2019-02-21T23:30:54.317Z,3.30
2019-02-21T23:39:37.803Z,3.32
2019-02-21T23:41:59.706Z,3.30
2019-02-21T23:44:29.987Z,3.30
2019-02-21T23:50:00.670Z,3.33
2019-02-21T23:52:30.777Z,3.27
2019-02-21T23:55:00.806Z,3.38
2019-02-21T23:57:32.322Z,3.24
